Time;durP1;ratioP1;P1;durP2;ratioP2;P2;SDS_P1;SDS_P2;PMS_P1;PMS_P2;Temp;Humidity;BMP_temperature;BMP_pressure;BME280_temperature;BME280_humidity;BME280_pressure;Samples;Min_cycle;Max_cycle;Signal;HPM_P1;HPM_P2
2022/02/20 00:00:39;;;;;;;1.65;0.75;;;;;;;;;;5114790;28;20068;-72
2022/02/20 00:03:05;;;;;;;3.70;0.50;;;;;;;;;;5114464;28;20058;-72
2022/02/20 00:05:31;;;;;;;0.90;0.40;;;;;;;;;;5114539;28;20024;-68
2022/02/20 00:07:57;;;;;;;0.90;0.50;;;;;;;;;;5114392;28;20056;-68
2022/02/20 00:10:23;;;;;;;1.00;0.70;;;;;;;;;;5114694;28;21076;-68
2022/02/20 00:12:50;;;;;;;2.00;0.80;;;;;;;;;;5114294;28;20077;-68
2022/02/20 00:15:16;;;;;;;1.90;0.90;;;;;;;;;;5114608;28;20468;-67
2022/02/20 00:17:42;;;;;;;2.47;0.80;;;;;;;;;;5114308;28;20055;-68
2022/02/20 00:20:08;;;;;;;1.77;0.90;;;;;;;;;;5114336;28;20019;-68
2022/02/20 00:22:34;;;;;;;1.40;0.70;;;;;;;;;;5114217;28;20106;-70
2022/02/20 00:25:01;;;;;;;0.70;0.60;;;;;;;;;;5114158;28;20421;-74
2022/02/20 00:27:27;;;;;;;2.27;0.53;;;;;;;;;;5113703;28;20035;-68
2022/02/20 00:29:54;;;;;;;1.03;0.60;;;;;;;;;;5113959;28;20027;-68
2022/02/20 00:32:20;;;;;;;0.60;0.40;;;;;;;;;;5113970;28;20034;-73
2022/02/20 00:34:46;;;;;;;0.77;0.40;;;;;;;;;;5113908;28;20031;-71
2022/02/20 00:37:12;;;;;;;0.70;0.40;;;;;;;;;;5113790;28;20035;-73
2022/02/20 00:39:39;;;;;;;2.67;0.30;;;;;;;;;;5114083;28;20468;-68
2022/02/20 00:42:05;;;;;;;3.13;0.80;;;;;;;;;;5113812;28;20024;-68
2022/02/20 00:44:31;;;;;;;2.05;0.68;;;;;;;;;;5113894;28;20035;-73
2022/02/20 00:46:57;;;;;;;1.20;0.40;;;;;;;;;;5113716;28;20055;-71
2022/02/20 00:49:23;;;;;;;1.03;0.50;;;;;;;;;;5113856;28;20097;-68
2022/02/20 00:51:49;;;;;;;1.10;0.40;;;;;;;;;;5113832;28;20032;-68
2022/02/20 00:54:15;;;;;;;1.30;0.40;;;;;;;;;;5113809;28;20027;-68
2022/02/20 00:56:41;;;;;;;1.20;0.60;;;;;;;;;;5113530;28;20027;-73
2022/02/20 00:59:07;;;;;;;0.63;0.30;;;;;;;;;;5113568;28;20024;-68
2022/02/20 01:01:34;;;;;;;0.70;0.50;;;;;;;;;;5113491;28;20031;-68
2022/02/20 01:04:00;;;;;;;1.07;0.40;;;;;;;;;;5113202;28;20468;-73
2022/02/20 01:06:27;;;;;;;1.50;0.40;;;;;;;;;;5113247;28;20416;-68
2022/02/20 01:08:53;;;;;;;0.73;0.50;;;;;;;;;;5113365;28;20044;-68
2022/02/20 01:11:19;;;;;;;0.53;0.30;;;;;;;;;;5113353;28;20121;-68
2022/02/20 01:13:46;;;;;;;0.50;0.30;;;;;;;;;;5113632;28;20027;-68
2022/02/20 01:16:12;;;;;;;1.55;0.68;;;;;;;;;;5113319;28;20059;-69
2022/02/20 01:18:38;;;;;;;3.03;1.30;;;;;;;;;;5113373;28;20035;-68
2022/02/20 01:21:05;;;;;;;1.93;1.20;;;;;;;;;;5113432;28;20484;-68
2022/02/20 01:23:31;;;;;;;2.65;1.42;;;;;;;;;;5113539;28;20027;-67
2022/02/20 01:25:57;;;;;;;3.17;1.70;;;;;;;;;;5113223;28;20567;-68
2022/02/20 01:28:23;;;;;;;2.83;1.55;;;;;;;;;;5113214;28;20035;-68
2022/02/20 01:30:49;;;;;;;2.30;1.20;;;;;;;;;;5113565;28;20107;-73
2022/02/20 01:33:17;;;;;;;2.25;1.40;;;;;;;;;;5113185;28;20024;-68
2022/02/20 01:35:43;;;;;;;4.38;1.50;;;;;;;;;;5113290;28;20117;-68
2022/02/20 01:38:09;;;;;;;2.43;0.90;;;;;;;;;;5113202;28;20020;-68
2022/02/20 01:40:35;;;;;;;2.53;1.20;;;;;;;;;;5113311;28;20042;-72
2022/02/20 01:43:01;;;;;;;1.05;0.70;;;;;;;;;;5113524;28;20393;-70
2022/02/20 01:45:27;;;;;;;0.93;0.67;;;;;;;;;;5113305;28;20430;-68
2022/02/20 01:47:53;;;;;;;2.20;1.03;;;;;;;;;;5113190;28;20510;-68
2022/02/20 01:50:20;;;;;;;1.23;0.90;;;;;;;;;;5113153;28;20028;-68
2022/02/20 01:52:46;;;;;;;0.97;0.47;;;;;;;;;;5113231;28;20035;-69
2022/02/20 01:55:13;;;;;;;1.20;0.40;;;;;;;;;;5112984;28;20027;-68
2022/02/20 01:57:39;;;;;;;2.67;0.50;;;;;;;;;;5112359;28;20327;-68
2022/02/20 02:00:07;;;;;;;0.45;0.35;;;;;;;;;;5110489;28;20031;-72
2022/02/20 02:02:33;;;;;;;0.73;0.50;;;;;;;;;;5110435;28;20147;-69
2022/02/20 02:04:59;;;;;;;0.70;0.50;;;;;;;;;;5111596;28;20365;-73
2022/02/20 02:07:27;;;;;;;0.83;0.40;;;;;;;;;;5112367;28;20048;-68
2022/02/20 02:09:53;;;;;;;1.40;0.60;;;;;;;;;;5112921;28;20046;-68
2022/02/20 02:12:19;;;;;;;0.93;0.53;;;;;;;;;;5112723;28;20019;-68
2022/02/20 02:14:55;;;;;;;0.73;0.50;;;;;;;;;;5113635;28;20391;-68
2022/02/20 02:17:22;;;;;;;8.68;0.70;;;;;;;;;;5116806;28;20034;-72
2022/02/20 02:19:48;;;;;;;1.93;0.53;;;;;;;;;;5116112;28;20019;-68
2022/02/20 02:22:14;;;;;;;2.37;0.90;;;;;;;;;;5116038;28;20511;-72
2022/02/20 02:24:40;;;;;;;1.50;1.00;;;;;;;;;;5116001;28;20028;-72
2022/02/20 02:27:06;;;;;;;1.50;0.87;;;;;;;;;;5116284;28;20051;-68
2022/02/20 02:29:32;;;;;;;2.97;1.20;;;;;;;;;;5115747;28;20069;-68
2022/02/20 02:31:58;;;;;;;3.23;1.07;;;;;;;;;;5116088;28;20023;-68
2022/02/20 02:34:24;;;;;;;4.33;0.63;;;;;;;;;;5116193;28;20027;-73
2022/02/20 02:36:50;;;;;;;0.40;0.30;;;;;;;;;;5116107;28;20034;-68
2022/02/20 02:39:16;;;;;;;1.10;0.60;;;;;;;;;;5116339;28;20023;-68
2022/02/20 02:41:42;;;;;;;0.83;0.57;;;;;;;;;;5115971;28;20031;-68
2022/02/20 02:44:08;;;;;;;0.68;0.52;;;;;;;;;;5115479;28;20016;-68
2022/02/20 02:46:34;;;;;;;0.60;0.40;;;;;;;;;;5115821;28;20072;-68
2022/02/20 02:49:01;;;;;;;0.77;0.57;;;;;;;;;;5115915;28;20036;-71
2022/02/20 02:51:27;;;;;;;0.90;0.60;;;;;;;;;;5115810;28;20103;-68
2022/02/20 02:53:57;;;;;;;1.40;0.70;;;;;;;;;;5116003;28;20034;-73
2022/02/20 02:56:24;;;;;;;0.50;0.50;;;;;;;;;;5116136;28;20031;-73
2022/02/20 02:58:50;;;;;;;1.23;0.60;;;;;;;;;;5115326;28;20028;-70
2022/02/20 03:01:17;;;;;;;1.00;0.63;;;;;;;;;;5115661;28;20023;-70
2022/02/20 03:03:43;;;;;;;1.57;0.50;;;;;;;;;;5115726;28;20027;-73
2022/02/20 03:06:14;;;;;;;1.07;0.50;;;;;;;;;;5115676;28;20464;-69
2022/02/20 03:08:40;;;;;;;1.75;0.40;;;;;;;;;;5115125;28;20051;-67
2022/02/20 03:11:06;;;;;;;0.95;0.50;;;;;;;;;;5115382;28;20028;-68
2022/02/20 03:13:33;;;;;;;0.50;0.40;;;;;;;;;;5115374;28;20180;-69
2022/02/20 03:15:59;;;;;;;1.10;0.60;;;;;;;;;;5115428;28;20357;-69
2022/02/20 03:18:26;;;;;;;0.50;0.40;;;;;;;;;;5115408;28;20112;-73
2022/02/20 03:20:52;;;;;;;0.37;0.37;;;;;;;;;;5115213;28;20027;-70
2022/02/20 03:23:18;;;;;;;0.45;0.32;;;;;;;;;;5115155;28;20030;-67
2022/02/20 03:25:45;;;;;;;0.27;0.20;;;;;;;;;;5115279;28;20114;-69
2022/02/20 03:28:11;;;;;;;0.93;0.30;;;;;;;;;;5115108;28;20079;-69
2022/02/20 03:30:37;;;;;;;0.93;0.30;;;;;;;;;;5115072;28;20081;-67
2022/02/20 03:33:03;;;;;;;0.30;0.30;;;;;;;;;;5114947;28;20035;-70
2022/02/20 03:35:29;;;;;;;0.67;0.40;;;;;;;;;;5115211;28;20103;-68
2022/02/20 03:37:56;;;;;;;0.43;0.20;;;;;;;;;;5115162;28;20065;-72
2022/02/20 03:40:22;;;;;;;2.00;0.40;;;;;;;;;;5115157;28;20051;-71
2022/02/20 03:42:49;;;;;;;1.10;0.37;;;;;;;;;;5114736;28;20490;-68
2022/02/20 03:45:15;;;;;;;0.97;0.50;;;;;;;;;;5114742;28;20039;-71
2022/02/20 03:47:41;;;;;;;1.17;0.53;;;;;;;;;;5114437;28;20039;-68
2022/02/20 03:50:07;;;;;;;0.90;0.40;;;;;;;;;;5114570;28;20024;-68
2022/02/20 03:52:34;;;;;;;0.97;0.30;;;;;;;;;;5115035;28;20062;-73
2022/02/20 03:55:00;;;;;;;0.53;0.30;;;;;;;;;;5114818;28;20024;-68
2022/02/20 03:57:26;;;;;;;0.50;0.50;;;;;;;;;;5114505;28;20023;-68
2022/02/20 03:59:52;;;;;;;0.70;0.40;;;;;;;;;;5114502;28;20039;-68
2022/02/20 04:02:18;;;;;;;0.90;0.40;;;;;;;;;;5114573;28;20027;-68
2022/02/20 04:04:44;;;;;;;0.40;0.30;;;;;;;;;;5114389;28;20077;-68
2022/02/20 04:07:10;;;;;;;1.27;0.37;;;;;;;;;;5114394;28;20051;-68
2022/02/20 04:09:36;;;;;;;0.50;0.30;;;;;;;;;;5114438;28;20100;-67
2022/02/20 04:12:02;;;;;;;0.80;0.30;;;;;;;;;;5113996;28;20030;-73
2022/02/20 04:14:29;;;;;;;2.03;0.50;;;;;;;;;;5113951;28;20031;-68
2022/02/20 04:16:55;;;;;;;1.42;0.60;;;;;;;;;;5114346;28;20460;-68
2022/02/20 04:19:21;;;;;;;0.60;0.40;;;;;;;;;;5113968;28;20024;-73
2022/02/20 04:21:47;;;;;;;1.00;0.50;;;;;;;;;;5114031;28;20031;-68
2022/02/20 04:24:13;;;;;;;0.87;0.40;;;;;;;;;;5113950;28;20384;-68
2022/02/20 04:26:39;;;;;;;1.60;0.53;;;;;;;;;;5113869;28;20026;-68
2022/02/20 04:29:05;;;;;;;1.43;0.47;;;;;;;;;;5113864;28;20028;-68
2022/02/20 04:31:32;;;;;;;2.27;0.50;;;;;;;;;;5114215;28;20016;-68
2022/02/20 04:33:58;;;;;;;0.75;0.43;;;;;;;;;;5113823;28;20027;-68
2022/02/20 04:36:24;;;;;;;0.90;0.50;;;;;;;;;;5113844;28;20524;-68
2022/02/20 04:38:50;;;;;;;3.10;0.67;;;;;;;;;;5113781;28;20024;-73
2022/02/20 04:41:16;;;;;;;1.50;0.50;;;;;;;;;;5113861;28;20031;-68
2022/02/20 04:43:42;;;;;;;0.80;0.40;;;;;;;;;;5113851;28;20019;-73
2022/02/20 04:46:08;;;;;;;0.60;0.40;;;;;;;;;;5113764;28;20045;-68
2022/02/20 04:48:34;;;;;;;1.40;0.70;;;;;;;;;;5113817;28;20072;-67
2022/02/20 04:51:00;;;;;;;1.30;0.70;;;;;;;;;;5095734;28;20020;-68
2022/02/20 04:53:26;;;;;;;1.57;0.50;;;;;;;;;;5113818;28;20106;-68
2022/02/20 04:55:52;;;;;;;0.63;0.50;;;;;;;;;;5113712;28;20053;-73
2022/02/20 04:58:18;;;;;;;1.07;0.50;;;;;;;;;;5113492;28;20023;-68
2022/02/20 05:00:44;;;;;;;1.10;0.60;;;;;;;;;;5113562;28;20072;-68
2022/02/20 05:03:10;;;;;;;1.63;0.50;;;;;;;;;;5113689;28;20083;-72
2022/02/20 05:05:37;;;;;;;1.10;0.60;;;;;;;;;;5113443;28;20036;-68
2022/02/20 05:08:04;;;;;;;1.00;0.50;;;;;;;;;;5112992;28;20063;-68
2022/02/20 05:10:30;;;;;;;2.43;0.80;;;;;;;;;;5113944;28;20019;-72
2022/02/20 05:12:56;;;;;;;3.57;0.50;;;;;;;;;;5113344;28;20032;-68
2022/02/20 05:15:22;;;;;;;1.70;0.60;;;;;;;;;;5113540;28;20383;-72
2022/02/20 05:17:48;;;;;;;1.90;1.07;;;;;;;;;;5113710;28;20100;-68
2022/02/20 05:20:14;;;;;;;1.50;0.77;;;;;;;;;;5113279;28;20111;-70
2022/02/20 05:22:40;;;;;;;1.40;0.53;;;;;;;;;;5113587;28;20039;-68
2022/02/20 05:25:06;;;;;;;1.03;0.43;;;;;;;;;;5113577;28;20020;-68
2022/02/20 05:27:33;;;;;;;1.73;0.60;;;;;;;;;;5113136;28;20502;-68
2022/02/20 05:29:59;;;;;;;1.50;0.70;;;;;;;;;;5113762;28;20028;-73
2022/02/20 05:32:26;;;;;;;1.43;0.60;;;;;;;;;;5113308;28;20023;-71
2022/02/20 05:34:52;;;;;;;1.70;0.50;;;;;;;;;;5113287;28;20096;-73
2022/02/20 05:37:19;;;;;;;0.97;0.67;;;;;;;;;;5113083;28;20102;-72
2022/02/20 05:39:45;;;;;;;1.27;0.50;;;;;;;;;;5113243;28;20039;-67
2022/02/20 05:42:11;;;;;;;0.87;0.60;;;;;;;;;;5113415;28;20460;-67
2022/02/20 05:44:37;;;;;;;1.27;0.73;;;;;;;;;;5113226;28;20027;-69
2022/02/20 05:47:04;;;;;;;0.60;0.60;;;;;;;;;;5113366;28;20107;-73
2022/02/20 05:49:30;;;;;;;2.00;0.73;;;;;;;;;;5113829;28;20038;-67
2022/02/20 05:51:56;;;;;;;1.30;0.70;;;;;;;;;;5117223;28;20016;-68
2022/02/20 05:54:22;;;;;;;1.60;0.60;;;;;;;;;;5117171;28;20032;-73
2022/02/20 05:56:49;;;;;;;1.70;0.60;;;;;;;;;;5116575;28;20031;-69
2022/02/20 05:59:16;;;;;;;1.00;0.70;;;;;;;;;;5117252;28;20073;-68
2022/02/20 06:01:42;;;;;;;2.73;0.70;;;;;;;;;;5116865;28;20024;-68
2022/02/20 06:04:08;;;;;;;1.67;0.83;;;;;;;;;;5117143;28;20049;-68
2022/02/20 06:06:34;;;;;;;1.80;0.87;;;;;;;;;;5116198;28;20051;-68
2022/02/20 06:09:00;;;;;;;1.70;0.90;;;;;;;;;;5116418;28;20031;-70
2022/02/20 06:11:27;;;;;;;2.40;0.83;;;;;;;;;;5116879;28;20020;-70
2022/02/20 06:13:53;;;;;;;1.20;0.70;;;;;;;;;;5116654;28;20039;-68
2022/02/20 06:16:20;;;;;;;1.97;0.90;;;;;;;;;;5116826;28;20388;-68
2022/02/20 06:18:47;;;;;;;2.07;1.10;;;;;;;;;;5116482;28;20085;-73
2022/02/20 06:21:13;;;;;;;2.37;1.30;;;;;;;;;;5116674;28;20471;-68
2022/02/20 06:23:39;;;;;;;2.43;1.20;;;;;;;;;;5116420;28;20058;-68
2022/02/20 06:26:06;;;;;;;1.03;0.70;;;;;;;;;;5116368;28;20020;-67
2022/02/20 06:28:32;;;;;;;0.97;0.70;;;;;;;;;;5116222;28;20042;-68
2022/02/20 06:30:58;;;;;;;2.30;0.97;;;;;;;;;;5116321;28;20042;-73
2022/02/20 06:33:24;;;;;;;1.30;0.70;;;;;;;;;;5116273;28;20047;-68
2022/02/20 06:35:50;;;;;;;1.70;0.87;;;;;;;;;;5116245;28;20512;-69
2022/02/20 06:38:16;;;;;;;6.60;0.90;;;;;;;;;;5116337;28;20035;-72
2022/02/20 06:40:42;;;;;;;2.00;0.80;;;;;;;;;;5115890;28;20026;-72
2022/02/20 06:43:08;;;;;;;5.00;1.90;;;;;;;;;;5115767;28;20110;-72
2022/02/20 06:45:34;;;;;;;3.67;1.80;;;;;;;;;;5115604;28;20011;-73
2022/02/20 06:48:01;;;;;;;3.77;2.37;;;;;;;;;;5115743;28;20039;-68
2022/02/20 06:50:27;;;;;;;3.40;1.70;;;;;;;;;;5116102;28;20040;-71
2022/02/20 06:52:53;;;;;;;3.77;1.93;;;;;;;;;;5115653;28;20373;-68
2022/02/20 06:55:19;;;;;;;3.63;1.60;;;;;;;;;;5115775;28;20020;-68
2022/02/20 06:57:45;;;;;;;2.10;1.50;;;;;;;;;;5115920;28;20028;-68
2022/02/20 07:00:12;;;;;;;2.37;1.40;;;;;;;;;;5115259;28;20072;-68
2022/02/20 07:02:39;;;;;;;2.43;1.57;;;;;;;;;;5115381;28;20034;-73
2022/02/20 07:05:06;;;;;;;2.97;1.40;;;;;;;;;;5115497;28;20023;-72
2022/02/20 07:07:32;;;;;;;8.20;1.67;;;;;;;;;;5115113;28;20040;-72
2022/02/20 07:09:58;;;;;;;1.90;1.43;;;;;;;;;;5115300;28;20068;-72
2022/02/20 07:12:24;;;;;;;2.53;1.20;;;;;;;;;;5114285;28;20212;-71
2022/02/20 07:14:51;;;;;;;2.47;1.27;;;;;;;;;;5112442;28;20034;-68
2022/02/20 07:17:17;;;;;;;4.10;1.00;;;;;;;;;;5112663;28;20027;-68
2022/02/20 07:19:43;;;;;;;1.10;0.80;;;;;;;;;;5113531;28;20443;-68
2022/02/20 07:22:10;;;;;;;1.40;1.00;;;;;;;;;;5115219;28;20536;-68
2022/02/20 07:24:37;;;;;;;1.87;1.00;;;;;;;;;;5115637;28;20022;-68
2022/02/20 07:27:03;;;;;;;1.90;1.03;;;;;;;;;;5115268;28;20027;-68
2022/02/20 07:29:29;;;;;;;1.17;0.80;;;;;;;;;;5114096;28;20028;-68
2022/02/20 07:31:55;;;;;;;8.93;1.33;;;;;;;;;;5112389;28;20020;-68
2022/02/20 07:34:21;;;;;;;1.77;0.60;;;;;;;;;;5112336;28;20114;-68
2022/02/20 07:36:47;;;;;;;1.33;0.80;;;;;;;;;;5115264;28;20410;-71
2022/02/20 07:39:14;;;;;;;1.97;0.63;;;;;;;;;;5115211;28;20043;-73
2022/02/20 07:41:40;;;;;;;1.57;0.70;;;;;;;;;;5114538;28;20020;-68
2022/02/20 07:44:06;;;;;;;3.70;0.80;;;;;;;;;;5114624;28;20051;-68
2022/02/20 07:46:33;;;;;;;0.60;0.60;;;;;;;;;;5114838;28;20027;-68
2022/02/20 07:48:59;;;;;;;2.97;0.70;;;;;;;;;;5114407;28;20039;-68
2022/02/20 07:51:25;;;;;;;1.50;0.80;;;;;;;;;;5114847;28;20015;-68
2022/02/20 07:53:51;;;;;;;1.67;0.90;;;;;;;;;;5114767;28;20031;-68
2022/02/20 07:56:17;;;;;;;1.70;1.00;;;;;;;;;;5114671;28;20027;-68
2022/02/20 07:58:44;;;;;;;1.77;1.20;;;;;;;;;;5114572;28;20077;-68
2022/02/20 08:01:10;;;;;;;2.30;1.70;;;;;;;;;;5114708;28;20556;-68
2022/02/20 08:03:36;;;;;;;3.22;1.60;;;;;;;;;;5114645;28;20039;-68
2022/02/20 08:06:03;;;;;;;2.33;1.60;;;;;;;;;;5114277;28;20030;-67
2022/02/20 08:08:30;;;;;;;3.40;1.93;;;;;;;;;;5114216;28;20058;-68
2022/02/20 08:11:00;;;;;;;3.93;2.07;;;;;;;;;;5114245;28;20126;-68
2022/02/20 08:13:26;;;;;;;4.97;2.10;;;;;;;;;;5113221;28;20080;-68
2022/02/20 08:15:52;;;;;;;3.87;1.90;;;;;;;;;;5112470;28;20070;-69
2022/02/20 08:18:19;;;;;;;2.73;1.83;;;;;;;;;;5111941;28;20043;-68
2022/02/20 08:20:45;;;;;;;4.40;1.50;;;;;;;;;;5111725;28;20059;-68
2022/02/20 08:23:12;;;;;;;2.63;1.67;;;;;;;;;;5111637;28;20104;-68
2022/02/20 08:25:39;;;;;;;3.03;1.90;;;;;;;;;;5111623;28;20179;-68
2022/02/20 08:28:05;;;;;;;3.77;1.70;;;;;;;;;;5111175;28;20042;-68
2022/02/20 08:30:31;;;;;;;3.73;1.80;;;;;;;;;;5112387;28;20277;-68
2022/02/20 08:32:58;;;;;;;3.10;1.50;;;;;;;;;;5110619;28;20024;-68
2022/02/20 08:35:24;;;;;;;2.10;1.40;;;;;;;;;;5111476;28;20106;-68
2022/02/20 08:37:50;;;;;;;3.13;1.40;;;;;;;;;;5114020;28;20034;-68
2022/02/20 08:40:17;;;;;;;3.08;1.40;;;;;;;;;;5114001;28;20411;-67
2022/02/20 08:42:44;;;;;;;2.08;1.30;;;;;;;;;;5113739;28;20020;-68
2022/02/20 08:45:10;;;;;;;3.60;1.70;;;;;;;;;;5113568;28;20023;-68
2022/02/20 08:47:36;;;;;;;3.20;1.47;;;;;;;;;;5113688;28;20054;-68
2022/02/20 08:50:03;;;;;;;2.28;1.45;;;;;;;;;;5113694;28;20056;-68
2022/02/20 08:52:29;;;;;;;2.40;1.37;;;;;;;;;;5113709;28;20110;-68
2022/02/20 08:54:55;;;;;;;2.17;1.42;;;;;;;;;;5113297;28;20026;-68
2022/02/20 08:57:21;;;;;;;2.30;1.50;;;;;;;;;;5113553;28;20387;-68
2022/02/20 08:59:49;;;;;;;2.78;1.80;;;;;;;;;;5113601;28;20482;-69
2022/02/20 09:02:16;;;;;;;3.17;1.40;;;;;;;;;;5113299;28;20027;-69
2022/02/20 09:04:42;;;;;;;1.70;1.17;;;;;;;;;;5113425;28;20028;-72
2022/02/20 09:07:08;;;;;;;2.00;1.25;;;;;;;;;;5112885;28;20120;-68
2022/02/20 09:09:35;;;;;;;3.38;1.52;;;;;;;;;;5113413;28;20035;-70
2022/02/20 09:12:01;;;;;;;1.63;1.20;;;;;;;;;;5113424;28;20015;-70
2022/02/20 09:14:27;;;;;;;1.90;0.90;;;;;;;;;;5113265;28;20051;-73
2022/02/20 09:16:53;;;;;;;1.45;1.00;;;;;;;;;;5113566;28;20032;-73
2022/02/20 09:19:19;;;;;;;1.08;0.90;;;;;;;;;;5113428;28;20024;-72
2022/02/20 09:21:45;;;;;;;1.58;0.90;;;;;;;;;;5113479;28;20023;-73
2022/02/20 09:24:11;;;;;;;1.42;0.90;;;;;;;;;;5114968;28;20031;-72
2022/02/20 09:26:38;;;;;;;3.33;0.93;;;;;;;;;;5117573;28;20111;-71
2022/02/20 09:29:04;;;;;;;3.30;0.77;;;;;;;;;;5114841;28;20036;-71
2022/02/20 09:31:30;;;;;;;4.57;1.20;;;;;;;;;;5115055;28;20053;-72
2022/02/20 09:33:56;;;;;;;2.80;1.00;;;;;;;;;;5115466;28;20031;-73
2022/02/20 09:36:22;;;;;;;2.85;1.00;;;;;;;;;;5117298;28;20027;-71
2022/02/20 09:38:48;;;;;;;1.42;0.80;;;;;;;;;;5117494;28;20056;-73
2022/02/20 09:41:14;;;;;;;1.30;0.70;;;;;;;;;;5116955;28;20036;-73
2022/02/20 09:43:41;;;;;;;2.03;1.10;;;;;;;;;;5116199;28;20076;-74
2022/02/20 09:46:08;;;;;;;1.88;0.95;;;;;;;;;;5115906;28;20460;-71
2022/02/20 09:48:34;;;;;;;1.35;0.80;;;;;;;;;;5116155;28;20483;-72
2022/02/20 09:51:00;;;;;;;2.92;1.10;;;;;;;;;;5116518;28;20019;-71
2022/02/20 09:53:28;;;;;;;2.50;1.10;;;;;;;;;;5114652;28;20032;-72
2022/02/20 09:55:54;;;;;;;2.95;0.98;;;;;;;;;;5113870;28;20023;-72
2022/02/20 09:58:21;;;;;;;2.25;1.17;;;;;;;;;;5113858;28;20539;-72
2022/02/20 10:00:51;;;;;;;3.03;1.02;;;;;;;;;;5115458;28;20046;-73
2022/02/20 10:03:27;;;;;;;1.67;0.75;;;;;;;;;;5116275;28;20375;-71
2022/02/20 10:05:53;;;;;;;1.88;0.82;;;;;;;;;;5115963;28;20035;-72
2022/02/20 10:08:19;;;;;;;0.75;0.68;;;;;;;;;;5115787;28;20369;-71
2022/02/20 10:10:45;;;;;;;0.88;0.70;;;;;;;;;;5116610;28;20475;-70
2022/02/20 10:13:11;;;;;;;1.30;0.77;;;;;;;;;;5116728;28;20053;-71
2022/02/20 10:15:41;;;;;;;1.40;0.90;;;;;;;;;;5116222;28;20475;-71
2022/02/20 10:18:13;;;;;;;1.85;1.08;;;;;;;;;;5116608;28;20479;-74
2022/02/20 10:20:39;;;;;;;1.17;0.80;;;;;;;;;;5115854;28;20048;-73
2022/02/20 10:23:06;;;;;;;2.97;1.10;;;;;;;;;;5116305;28;20031;-71
2022/02/20 10:25:32;;;;;;;1.55;0.82;;;;;;;;;;5116064;28;20032;-74
2022/02/20 10:27:58;;;;;;;1.60;1.08;;;;;;;;;;5116226;28;20040;-71
2022/02/20 10:30:26;;;;;;;1.80;1.00;;;;;;;;;;5115969;28;20034;-71
2022/02/20 10:33:05;;;;;;;1.77;0.90;;;;;;;;;;5116163;28;20020;-71
2022/02/20 10:35:35;;;;;;;1.38;0.90;;;;;;;;;;5115248;28;20039;-71
2022/02/20 10:38:08;;;;;;;1.67;0.80;;;;;;;;;;5116163;28;20114;-74
2022/02/20 10:40:34;;;;;;;0.70;0.50;;;;;;;;;;5115900;28;20463;-74
2022/02/20 10:43:01;;;;;;;0.85;0.75;;;;;;;;;;5115615;28;20028;-73
2022/02/20 10:45:34;;;;;;;9.35;1.48;;;;;;;;;;5116093;28;20088;-70
2022/02/20 10:48:01;;;;;;;1.10;0.80;;;;;;;;;;5115783;28;20086;-75
2022/02/20 10:50:29;;;;;;;1.77;0.73;;;;;;;;;;5115636;28;20034;-70
2022/02/20 10:53:11;;;;;;;3.55;0.63;;;;;;;;;;5115532;28;20058;-70
2022/02/20 10:55:37;;;;;;;1.25;0.40;;;;;;;;;;5115526;28;20061;-70
2022/02/20 10:58:10;;;;;;;1.55;0.60;;;;;;;;;;5115401;28;20047;-71
2022/02/20 11:00:36;;;;;;;1.25;0.55;;;;;;;;;;5115525;28;20019;-70
2022/02/20 11:03:06;;;;;;;2.33;0.70;;;;;;;;;;5115554;28;20095;-70
2022/02/20 11:05:32;;;;;;;2.75;0.65;;;;;;;;;;5115546;28;20035;-72
2022/02/20 11:08:00;;;;;;;1.30;0.63;;;;;;;;;;5115323;28;20051;-70
2022/02/20 11:10:26;;;;;;;1.25;0.60;;;;;;;;;;5115349;28;20047;-70
2022/02/20 11:12:52;;;;;;;1.25;0.55;;;;;;;;;;5115502;28;20023;-70
2022/02/20 11:15:19;;;;;;;0.95;0.60;;;;;;;;;;5115492;28;20019;-70
2022/02/20 11:17:45;;;;;;;1.42;0.77;;;;;;;;;;5115670;28;20032;-70
2022/02/20 11:20:12;;;;;;;1.13;0.70;;;;;;;;;;5115343;28;20020;-70
2022/02/20 11:22:38;;;;;;;1.73;0.68;;;;;;;;;;5115506;28;20073;-70
2022/02/20 11:25:07;;;;;;;1.70;0.90;;;;;;;;;;5115413;28;20414;-70
2022/02/20 11:27:34;;;;;;;1.92;1.00;;;;;;;;;;5115273;28;20114;-70
2022/02/20 11:30:00;;;;;;;0.95;0.60;;;;;;;;;;5115157;28;20379;-75
2022/02/20 11:32:27;;;;;;;1.40;0.60;;;;;;;;;;5114230;28;20016;-70
2022/02/20 11:34:53;;;;;;;2.58;0.88;;;;;;;;;;5114612;28;20026;-70
2022/02/20 11:37:19;;;;;;;1.25;0.70;;;;;;;;;;5114736;28;20050;-70
2022/02/20 11:40:12;;;;;;;1.60;0.80;;;;;;;;;;5114755;28;20019;-71
2022/02/20 11:42:39;;;;;;;1.25;0.77;;;;;;;;;;5114662;28;20031;-72
2022/02/20 11:45:09;;;;;;;1.45;0.80;;;;;;;;;;5114260;28;20019;-71
2022/02/20 11:47:35;;;;;;;5.28;3.05;;;;;;;;;;5113533;28;20384;-71
2022/02/20 11:50:16;;;;;;;1.08;0.73;;;;;;;;;;5114698;28;20468;-71
2022/02/20 11:52:49;;;;;;;1.33;0.77;;;;;;;;;;5114451;28;20425;-70
2022/02/20 11:55:17;;;;;;;1.15;0.65;;;;;;;;;;5114998;28;20379;-72
2022/02/20 11:57:46;;;;;;;1.98;0.70;;;;;;;;;;5113642;28;20073;-71
2022/02/20 12:00:14;;;;;;;1.77;0.90;;;;;;;;;;5110270;28;20820;-72
2022/02/20 12:03:03;;;;;;;3.40;1.73;;;;;;;;;;5110398;28;20102;-72
2022/02/20 12:05:30;;;;;;;5.28;2.40;;;;;;;;;;5100077;28;20032;-70
2022/02/20 12:07:56;;;;;;;7.07;3.17;;;;;;;;;;5111865;28;20044;-74
2022/02/20 12:10:28;;;;;;;1.30;0.90;;;;;;;;;;5114434;28;20131;-75
2022/02/20 12:12:59;;;;;;;4.25;1.52;;;;;;;;;;5114283;28;20021;-72
2022/02/20 12:15:30;;;;;;;1.55;1.00;;;;;;;;;;5114500;28;20064;-70
2022/02/20 12:18:02;;;;;;;3.00;0.80;;;;;;;;;;5114114;28;20051;-71
2022/02/20 12:20:55;;;;;;;4.53;0.85;;;;;;;;;;5112289;28;20119;-71
2022/02/20 12:23:27;;;;;;;1.52;0.70;;;;;;;;;;5071994;28;20082;-75
2022/02/20 12:25:53;;;;;;;0.57;0.45;;;;;;;;;;5110179;28;20035;-75
2022/02/20 12:28:31;;;;;;;0.60;0.60;;;;;;;;;;5108779;28;20097;-72
2022/02/20 12:30:58;;;;;;;1.48;0.70;;;;;;;;;;5111343;28;20023;-71
2022/02/20 12:33:31;;;;;;;1.13;0.52;;;;;;;;;;5111500;28;20027;-75
2022/02/20 12:35:57;;;;;;;0.80;0.65;;;;;;;;;;5111640;28;20435;-72
2022/02/20 12:38:23;;;;;;;1.83;0.80;;;;;;;;;;5111038;28;20472;-70
2022/02/20 12:40:50;;;;;;;2.90;0.70;;;;;;;;;;5113432;28;20459;-73
2022/02/20 12:43:17;;;;;;;0.60;0.50;;;;;;;;;;5113359;28;20046;-70
2022/02/20 12:45:45;;;;;;;1.45;0.65;;;;;;;;;;5113580;28;20024;-70
2022/02/20 12:48:13;;;;;;;1.33;0.60;;;;;;;;;;5113314;28;20039;-70
2022/02/20 12:50:41;;;;;;;1.23;0.80;;;;;;;;;;5112297;28;20062;-72
2022/02/20 12:53:07;;;;;;;1.50;0.73;;;;;;;;;;5112735;28;20034;-71
2022/02/20 12:55:34;;;;;;;1.13;0.75;;;;;;;;;;5113097;28;20023;-75
2022/02/20 12:58:02;;;;;;;2.17;1.00;;;;;;;;;;5112380;28;20085;-71
2022/02/20 13:00:29;;;;;;;2.40;1.20;;;;;;;;;;5113877;28;20367;-70
2022/02/20 13:02:56;;;;;;;2.60;1.70;;;;;;;;;;5113728;28;20019;-70
2022/02/20 13:05:31;;;;;;;2.65;1.00;;;;;;;;;;5113595;28;20028;-75
2022/02/20 13:08:08;;;;;;;1.65;0.82;;;;;;;;;;5112933;28;20086;-74
2022/02/20 13:10:39;;;;;;;4.47;0.73;;;;;;;;;;5113354;28;20089;-71
2022/02/20 13:13:07;;;;;;;2.67;0.90;;;;;;;;;;5113286;28;20460;-71
2022/02/20 13:15:53;;;;;;;1.45;1.00;;;;;;;;;;5113682;28;20028;-70
2022/02/20 13:18:21;;;;;;;1.38;1.00;;;;;;;;;;5113236;28;20472;-70
2022/02/20 13:20:59;;;;;;;1.23;0.85;;;;;;;;;;5113620;28;20080;-71
2022/02/20 13:23:35;;;;;;;2.70;0.90;;;;;;;;;;5113241;28;20115;-70
2022/02/20 13:26:03;;;;;;;1.75;0.73;;;;;;;;;;5113365;28;20091;-71
2022/02/20 13:28:39;;;;;;;1.55;0.70;;;;;;;;;;5113266;28;20035;-70
2022/02/20 13:31:06;;;;;;;8.23;4.80;;;;;;;;;;5113472;28;20076;-71
2022/02/20 13:33:37;;;;;;;3.08;1.70;;;;;;;;;;5113165;28;20072;-76
2022/02/20 13:36:04;;;;;;;4.10;1.30;;;;;;;;;;5113506;28;20432;-72
2022/02/20 13:38:31;;;;;;;2.88;1.40;;;;;;;;;;5113578;28;20103;-70
2022/02/20 13:40:57;;;;;;;2.47;1.45;;;;;;;;;;5113583;28;20018;-70
2022/02/20 13:43:37;;;;;;;2.95;1.80;;;;;;;;;;5113300;28;20028;-71
2022/02/20 13:46:03;;;;;;;2.40;1.38;;;;;;;;;;5113233;28;20043;-71
2022/02/20 13:48:31;;;;;;;2.20;1.00;;;;;;;;;;5113051;28;20495;-71
2022/02/20 13:51:10;;;;;;;1.30;1.00;;;;;;;;;;5113213;28;20052;-71
2022/02/20 13:53:37;;;;;;;2.92;1.92;;;;;;;;;;5113165;28;20118;-70
2022/02/20 13:56:03;;;;;;;2.15;1.08;;;;;;;;;;5113348;28;20034;-71
2022/02/20 13:58:29;;;;;;;1.85;1.10;;;;;;;;;;5113304;28;20039;-70
2022/02/20 14:00:56;;;;;;;1.73;1.13;;;;;;;;;;5112949;28;20066;-70
2022/02/20 14:03:23;;;;;;;2.13;1.30;;;;;;;;;;5113333;28;20039;-70
2022/02/20 14:05:53;;;;;;;1.77;1.40;;;;;;;;;;5113070;28;20030;-71
2022/02/20 14:08:19;;;;;;;1.10;0.80;;;;;;;;;;5112718;28;20055;-70
2022/02/20 14:10:59;;;;;;;3.88;1.10;;;;;;;;;;5113992;28;20020;-70
2022/02/20 14:13:25;;;;;;;2.95;1.20;;;;;;;;;;5116914;28;20468;-70
2022/02/20 14:16:02;;;;;;;1.90;1.20;;;;;;;;;;5116722;28;20521;-71
2022/02/20 14:18:28;;;;;;;1.45;1.02;;;;;;;;;;5116619;28;20410;-70
2022/02/20 14:20:55;;;;;;;2.10;0.90;;;;;;;;;;5116946;28;20019;-70
2022/02/20 14:23:22;;;;;;;1.75;0.98;;;;;;;;;;5116582;28;20055;-71
2022/02/20 14:25:48;;;;;;;5.97;1.60;;;;;;;;;;5116542;28;20020;-76
2022/02/20 14:28:18;;;;;;;1.80;0.98;;;;;;;;;;5116617;28;20039;-70
2022/02/20 14:30:45;;;;;;;3.90;1.23;;;;;;;;;;5116351;28;20038;-70
2022/02/20 14:33:12;;;;;;;6.38;3.05;;;;;;;;;;5116719;28;20038;-71
2022/02/20 14:35:39;;;;;;;6.20;2.33;;;;;;;;;;5116593;28;20088;-71
2022/02/20 14:38:05;;;;;;;2.13;1.40;;;;;;;;;;5116486;28;20027;-70
2022/02/20 14:40:32;;;;;;;4.50;2.35;;;;;;;;;;5116347;28;20062;-73
2022/02/20 14:42:58;;;;;;;3.10;2.10;;;;;;;;;;5116199;28;20472;-71